sensor_id;sensor_type;location;lat;lon;timestamp;P1;durP1;ratioP1;P2;durP2;ratioP2
22826;SDS011;11580;52.562;13.418;2023-05-10T00:00:51;6.17;;;5.67;;
22826;SDS011;11580;52.562;13.418;2023-05-10T00:03:18;6.67;;;6.07;;
22826;SDS011;11580;52.562;13.418;2023-05-10T00:05:45;6.17;;;5.67;;
22826;SDS011;11580;52.562;13.418;2023-05-10T00:08:12;6.37;;;5.87;;
22826;SDS011;11580;52.562;13.418;2023-05-10T00:10:39;6.33;;;5.73;;
22826;SDS011;11580;52.562;13.418;2023-05-10T00:13:07;8.10;;;7.40;;
22826;SDS011;11580;52.562;13.418;2023-05-10T00:15:35;6.60;;;6.00;;
22826;SDS011;11580;52.562;13.418;2023-05-10T00:18:02;6.80;;;6.30;;
22826;SDS011;11580;52.562;13.418;2023-05-10T00:20:30;6.83;;;6.37;;
22826;SDS011;11580;52.562;13.418;2023-05-10T00:22:57;6.23;;;5.73;;
22826;SDS011;11580;52.562;13.418;2023-05-10T00:25:24;5.97;;;5.57;;
22826;SDS011;11580;52.562;13.418;2023-05-10T00:27:51;6.70;;;6.20;;
22826;SDS011;11580;52.562;13.418;2023-05-10T00:30:20;5.67;;;5.17;;
22826;SDS011;11580;52.562;13.418;2023-05-10T00:32:49;5.50;;;5.10;;
22826;SDS011;11580;52.562;13.418;2023-05-10T00:35:16;6.03;;;5.43;;
22826;SDS011;11580;52.562;13.418;2023-05-10T00:37:43;6.80;;;6.20;;
22826;SDS011;11580;52.562;13.418;2023-05-10T00:40:11;6.77;;;5.90;;
22826;SDS011;11580;52.562;13.418;2023-05-10T00:42:41;6.33;;;5.83;;
22826;SDS011;11580;52.562;13.418;2023-05-10T00:45:08;5.90;;;5.50;;
22826;SDS011;11580;52.562;13.418;2023-05-10T00:47:36;6.43;;;5.90;;
22826;SDS011;11580;52.562;13.418;2023-05-10T00:50:06;6.83;;;6.33;;
22826;SDS011;11580;52.562;13.418;2023-05-10T00:52:34;6.03;;;5.53;;
22826;SDS011;11580;52.562;13.418;2023-05-10T00:55:02;6.73;;;6.23;;
22826;SDS011;11580;52.562;13.418;2023-05-10T00:57:30;6.00;;;5.60;;
22826;SDS011;11580;52.562;13.418;2023-05-10T00:59:58;6.23;;;5.73;;
22826;SDS011;11580;52.562;13.418;2023-05-10T01:02:26;5.90;;;5.50;;
22826;SDS011;11580;52.562;13.418;2023-05-10T01:04:53;5.50;;;5.10;;
22826;SDS011;11580;52.562;13.418;2023-05-10T01:07:23;6.43;;;5.80;;
22826;SDS011;11580;52.562;13.418;2023-05-10T01:09:50;6.10;;;5.70;;
22826;SDS011;11580;52.562;13.418;2023-05-10T01:12:17;6.53;;;6.03;;
22826;SDS011;11580;52.562;13.418;2023-05-10T01:14:45;6.20;;;5.67;;
22826;SDS011;11580;52.562;13.418;2023-05-10T01:17:12;6.03;;;5.57;;
22826;SDS011;11580;52.562;13.418;2023-05-10T01:19:41;6.23;;;5.77;;
22826;SDS011;11580;52.562;13.418;2023-05-10T01:22:12;6.70;;;6.20;;
22826;SDS011;11580;52.562;13.418;2023-05-10T01:25:13;6.17;;;5.60;;
22826;SDS011;11580;52.562;13.418;2023-05-10T01:28:08;5.90;;;5.47;;
22826;SDS011;11580;52.562;13.418;2023-05-10T01:31:08;5.63;;;5.20;;
22826;SDS011;11580;52.562;13.418;2023-05-10T01:34:08;6.17;;;5.77;;
22826;SDS011;11580;52.562;13.418;2023-05-10T01:36:43;6.83;;;5.87;;
22826;SDS011;11580;52.562;13.418;2023-05-10T01:39:30;6.67;;;6.17;;
22826;SDS011;11580;52.562;13.418;2023-05-10T01:42:11;5.83;;;5.43;;
22826;SDS011;11580;52.562;13.418;2023-05-10T01:44:46;5.53;;;5.10;;
22826;SDS011;11580;52.562;13.418;2023-05-10T01:47:34;6.53;;;6.03;;
22826;SDS011;11580;52.562;13.418;2023-05-10T01:50:09;6.40;;;5.90;;
22826;SDS011;11580;52.562;13.418;2023-05-10T01:52:44;9.93;;;5.97;;
22826;SDS011;11580;52.562;13.418;2023-05-10T01:55:18;6.33;;;5.73;;
22826;SDS011;11580;52.562;13.418;2023-05-10T01:57:52;6.67;;;6.07;;
22826;SDS011;11580;52.562;13.418;2023-05-10T02:00:29;5.70;;;5.20;;
22826;SDS011;11580;52.562;13.418;2023-05-10T02:02:57;6.93;;;6.33;;
22826;SDS011;11580;52.562;13.418;2023-05-10T02:05:32;5.90;;;5.40;;
22826;SDS011;11580;52.562;13.418;2023-05-10T02:08:00;6.30;;;5.77;;
22826;SDS011;11580;52.562;13.418;2023-05-10T02:10:31;7.60;;;6.10;;
22826;SDS011;11580;52.562;13.418;2023-05-10T02:13:00;5.53;;;5.13;;
22826;SDS011;11580;52.562;13.418;2023-05-10T02:15:29;6.60;;;6.00;;
22826;SDS011;11580;52.562;13.418;2023-05-10T02:17:57;5.90;;;5.50;;
22826;SDS011;11580;52.562;13.418;2023-05-10T02:20:27;6.27;;;5.80;;
22826;SDS011;11580;52.562;13.418;2023-05-10T02:22:57;5.53;;;5.13;;
22826;SDS011;11580;52.562;13.418;2023-05-10T02:25:26;6.07;;;5.60;;
22826;SDS011;11580;52.562;13.418;2023-05-10T02:27:55;5.90;;;5.50;;
22826;SDS011;11580;52.562;13.418;2023-05-10T02:30:26;6.30;;;5.70;;
22826;SDS011;11580;52.562;13.418;2023-05-10T02:32:53;5.77;;;5.27;;
22826;SDS011;11580;52.562;13.418;2023-05-10T02:35:24;6.40;;;5.90;;
22826;SDS011;11580;52.562;13.418;2023-05-10T02:37:53;6.60;;;6.00;;
22826;SDS011;11580;52.562;13.418;2023-05-10T02:40:24;6.07;;;5.67;;
22826;SDS011;11580;52.562;13.418;2023-05-10T02:42:55;5.80;;;5.40;;
22826;SDS011;11580;52.562;13.418;2023-05-10T02:45:25;6.70;;;5.87;;
22826;SDS011;11580;52.562;13.418;2023-05-10T02:47:57;6.27;;;5.60;;
22826;SDS011;11580;52.562;13.418;2023-05-10T02:50:25;6.10;;;5.50;;
22826;SDS011;11580;52.562;13.418;2023-05-10T02:52:59;5.00;;;4.70;;
22826;SDS011;11580;52.562;13.418;2023-05-10T02:55:35;5.60;;;5.20;;
22826;SDS011;11580;52.562;13.418;2023-05-10T02:58:06;6.00;;;5.40;;
22826;SDS011;11580;52.562;13.418;2023-05-10T03:00:33;5.43;;;5.03;;
22826;SDS011;11580;52.562;13.418;2023-05-10T03:03:01;6.47;;;5.93;;
22826;SDS011;11580;52.562;13.418;2023-05-10T03:05:29;5.20;;;4.77;;
22826;SDS011;11580;52.562;13.418;2023-05-10T03:07:59;5.07;;;4.57;;
22826;SDS011;11580;52.562;13.418;2023-05-10T03:10:29;6.20;;;5.43;;
22826;SDS011;11580;52.562;13.418;2023-05-10T03:13:10;6.00;;;5.57;;
22826;SDS011;11580;52.562;13.418;2023-05-10T03:15:56;5.90;;;5.30;;
22826;SDS011;11580;52.562;13.418;2023-05-10T03:18:33;5.30;;;4.90;;
22826;SDS011;11580;52.562;13.418;2023-05-10T03:21:08;5.80;;;5.30;;
22826;SDS011;11580;52.562;13.418;2023-05-10T03:23:42;5.50;;;5.07;;
22826;SDS011;11580;52.562;13.418;2023-05-10T03:26:15;5.20;;;4.77;;
22826;SDS011;11580;52.562;13.418;2023-05-10T03:28:53;5.70;;;5.30;;
22826;SDS011;11580;52.562;13.418;2023-05-10T03:31:24;5.17;;;4.77;;
22826;SDS011;11580;52.562;13.418;2023-05-10T03:33:52;5.67;;;5.20;;
22826;SDS011;11580;52.562;13.418;2023-05-10T03:36:23;6.87;;;6.33;;
22826;SDS011;11580;52.562;13.418;2023-05-10T03:38:51;6.17;;;5.57;;
22826;SDS011;11580;52.562;13.418;2023-05-10T03:41:18;5.73;;;5.23;;
22826;SDS011;11580;52.562;13.418;2023-05-10T03:43:46;5.93;;;5.07;;
22826;SDS011;11580;52.562;13.418;2023-05-10T03:46:15;4.93;;;4.63;;
22826;SDS011;11580;52.562;13.418;2023-05-10T03:48:42;5.53;;;4.97;;
22826;SDS011;11580;52.562;13.418;2023-05-10T03:51:09;6.07;;;5.57;;
22826;SDS011;11580;52.562;13.418;2023-05-10T03:53:38;6.27;;;5.73;;
22826;SDS011;11580;52.562;13.418;2023-05-10T03:56:05;5.50;;;5.10;;
22826;SDS011;11580;52.562;13.418;2023-05-10T03:58:33;5.53;;;5.03;;
22826;SDS011;11580;52.562;13.418;2023-05-10T04:01:01;5.90;;;5.40;;
22826;SDS011;11580;52.562;13.418;2023-05-10T04:03:29;6.93;;;6.27;;
22826;SDS011;11580;52.562;13.418;2023-05-10T04:06:00;5.30;;;5.00;;
22826;SDS011;11580;52.562;13.418;2023-05-10T04:08:28;5.37;;;5.07;;
22826;SDS011;11580;52.562;13.418;2023-05-10T04:11:04;5.80;;;5.30;;
22826;SDS011;11580;52.562;13.418;2023-05-10T04:13:32;6.20;;;5.67;;
22826;SDS011;11580;52.562;13.418;2023-05-10T04:16:00;5.37;;;4.97;;
22826;SDS011;11580;52.562;13.418;2023-05-10T04:18:27;6.40;;;5.60;;
22826;SDS011;11580;52.562;13.418;2023-05-10T04:20:56;5.60;;;5.20;;
22826;SDS011;11580;52.562;13.418;2023-05-10T04:23:23;5.80;;;5.30;;
22826;SDS011;11580;52.562;13.418;2023-05-10T04:25:51;5.30;;;4.90;;
22826;SDS011;11580;52.562;13.418;2023-05-10T04:28:18;6.43;;;6.03;;
22826;SDS011;11580;52.562;13.418;2023-05-10T04:30:45;5.17;;;4.77;;
22826;SDS011;11580;52.562;13.418;2023-05-10T04:33:12;4.73;;;4.40;;
22826;SDS011;11580;52.562;13.418;2023-05-10T04:35:41;5.00;;;4.60;;
22826;SDS011;11580;52.562;13.418;2023-05-10T04:38:09;5.33;;;4.93;;
22826;SDS011;11580;52.562;13.418;2023-05-10T04:40:36;5.83;;;5.40;;
22826;SDS011;11580;52.562;13.418;2023-05-10T04:43:04;5.80;;;5.40;;
22826;SDS011;11580;52.562;13.418;2023-05-10T04:45:31;5.30;;;4.80;;
22826;SDS011;11580;52.562;13.418;2023-05-10T04:47:58;5.33;;;4.93;;
22826;SDS011;11580;52.562;13.418;2023-05-10T04:50:25;5.20;;;4.80;;
22826;SDS011;11580;52.562;13.418;2023-05-10T04:52:53;5.00;;;4.60;;
22826;SDS011;11580;52.562;13.418;2023-05-10T04:55:21;5.30;;;4.87;;
22826;SDS011;11580;52.562;13.418;2023-05-10T04:57:48;4.70;;;4.30;;
22826;SDS011;11580;52.562;13.418;2023-05-10T05:00:15;6.40;;;5.10;;
22826;SDS011;11580;52.562;13.418;2023-05-10T05:02:43;5.20;;;4.80;;
22826;SDS011;11580;52.562;13.418;2023-05-10T05:05:11;4.80;;;4.50;;
22826;SDS011;11580;52.562;13.418;2023-05-10T05:07:38;6.10;;;5.60;;
22826;SDS011;11580;52.562;13.418;2023-05-10T05:10:07;4.97;;;4.50;;
22826;SDS011;11580;52.562;13.418;2023-05-10T05:12:35;5.90;;;5.07;;
22826;SDS011;11580;52.562;13.418;2023-05-10T05:15:02;4.43;;;4.13;;
22826;SDS011;11580;52.562;13.418;2023-05-10T05:17:30;5.20;;;4.80;;
22826;SDS011;11580;52.562;13.418;2023-05-10T05:19:57;5.03;;;4.63;;
22826;SDS011;11580;52.562;13.418;2023-05-10T05:22:25;5.30;;;4.20;;
22826;SDS011;11580;52.562;13.418;2023-05-10T05:24:53;5.37;;;4.97;;
22826;SDS011;11580;52.562;13.418;2023-05-10T05:27:21;4.57;;;4.27;;
22826;SDS011;11580;52.562;13.418;2023-05-10T05:29:52;5.23;;;4.83;;
22826;SDS011;11580;52.562;13.418;2023-05-10T05:32:19;4.57;;;4.17;;
22826;SDS011;11580;52.562;13.418;2023-05-10T05:34:47;4.33;;;4.03;;
22826;SDS011;11580;52.562;13.418;2023-05-10T05:37:14;4.40;;;4.07;;
22826;SDS011;11580;52.562;13.418;2023-05-10T05:39:42;4.50;;;4.10;;
22826;SDS011;11580;52.562;13.418;2023-05-10T05:42:10;5.20;;;4.50;;
22826;SDS011;11580;52.562;13.418;2023-05-10T05:44:39;4.80;;;4.40;;
22826;SDS011;11580;52.562;13.418;2023-05-10T05:47:07;4.47;;;4.17;;
22826;SDS011;11580;52.562;13.418;2023-05-10T05:49:34;4.17;;;3.87;;
22826;SDS011;11580;52.562;13.418;2023-05-10T05:52:02;4.07;;;3.77;;
22826;SDS011;11580;52.562;13.418;2023-05-10T05:54:30;4.67;;;4.27;;
22826;SDS011;11580;52.562;13.418;2023-05-10T05:56:58;4.20;;;3.90;;
22826;SDS011;11580;52.562;13.418;2023-05-10T05:59:26;4.13;;;3.83;;
22826;SDS011;11580;52.562;13.418;2023-05-10T06:01:55;4.33;;;3.93;;
22826;SDS011;11580;52.562;13.418;2023-05-10T06:04:22;4.50;;;4.13;;
22826;SDS011;11580;52.562;13.418;2023-05-10T06:06:49;4.50;;;4.07;;
22826;SDS011;11580;52.562;13.418;2023-05-10T06:09:16;4.57;;;4.13;;
22826;SDS011;11580;52.562;13.418;2023-05-10T06:11:44;3.97;;;3.77;;
22826;SDS011;11580;52.562;13.418;2023-05-10T06:14:11;4.13;;;3.83;;
22826;SDS011;11580;52.562;13.418;2023-05-10T06:16:38;3.87;;;3.57;;
22826;SDS011;11580;52.562;13.418;2023-05-10T06:19:07;3.40;;;3.20;;
22826;SDS011;11580;52.562;13.418;2023-05-10T06:21:34;3.70;;;3.40;;
22826;SDS011;11580;52.562;13.418;2023-05-10T06:24:01;3.80;;;3.50;;
22826;SDS011;11580;52.562;13.418;2023-05-10T06:26:28;4.07;;;3.77;;
22826;SDS011;11580;52.562;13.418;2023-05-10T06:28:56;4.20;;;3.80;;
22826;SDS011;11580;52.562;13.418;2023-05-10T06:31:23;3.50;;;3.23;;
22826;SDS011;11580;52.562;13.418;2023-05-10T06:33:50;3.30;;;3.10;;
22826;SDS011;11580;52.562;13.418;2023-05-10T06:36:18;5.77;;;3.43;;
22826;SDS011;11580;52.562;13.418;2023-05-10T06:38:47;5.40;;;3.20;;
22826;SDS011;11580;52.562;13.418;2023-05-10T06:41:14;3.93;;;3.60;;
22826;SDS011;11580;52.562;13.418;2023-05-10T06:43:41;3.30;;;3.10;;
22826;SDS011;11580;52.562;13.418;2023-05-10T06:46:08;5.40;;;3.67;;
22826;SDS011;11580;52.562;13.418;2023-05-10T06:48:35;3.43;;;3.13;;
22826;SDS011;11580;52.562;13.418;2023-05-10T06:51:03;3.23;;;3.03;;
22826;SDS011;11580;52.562;13.418;2023-05-10T06:53:31;4.50;;;3.30;;
22826;SDS011;11580;52.562;13.418;2023-05-10T06:55:58;3.20;;;2.90;;
22826;SDS011;11580;52.562;13.418;2023-05-10T06:58:26;3.30;;;3.10;;
22826;SDS011;11580;52.562;13.418;2023-05-10T07:00:53;3.07;;;2.87;;
22826;SDS011;11580;52.562;13.418;2023-05-10T07:03:20;3.23;;;2.77;;
22826;SDS011;11580;52.562;13.418;2023-05-10T07:05:47;3.50;;;3.20;;
22826;SDS011;11580;52.562;13.418;2023-05-10T07:08:14;3.27;;;3.07;;
22826;SDS011;11580;52.562;13.418;2023-05-10T07:10:43;3.77;;;3.47;;
22826;SDS011;11580;52.562;13.418;2023-05-10T07:13:10;2.90;;;2.60;;
22826;SDS011;11580;52.562;13.418;2023-05-10T07:15:37;3.90;;;3.60;;
22826;SDS011;11580;52.562;13.418;2023-05-10T07:18:04;3.20;;;2.90;;
22826;SDS011;11580;52.562;13.418;2023-05-10T07:20:32;3.90;;;3.60;;
22826;SDS011;11580;52.562;13.418;2023-05-10T07:22:59;3.53;;;3.23;;
22826;SDS011;11580;52.562;13.418;2023-05-10T07:25:26;3.40;;;3.20;;
22826;SDS011;11580;52.562;13.418;2023-05-10T07:27:55;3.50;;;3.27;;
22826;SDS011;11580;52.562;13.418;2023-05-10T07:30:22;3.30;;;3.10;;
22826;SDS011;11580;52.562;13.418;2023-05-10T07:32:49;3.60;;;3.30;;
22826;SDS011;11580;52.562;13.418;2023-05-10T07:35:17;3.57;;;3.27;;
22826;SDS011;11580;52.562;13.418;2023-05-10T07:37:44;4.20;;;3.90;;
22826;SDS011;11580;52.562;13.418;2023-05-10T07:40:11;3.47;;;3.17;;
22826;SDS011;11580;52.562;13.418;2023-05-10T07:42:38;3.43;;;3.13;;
22826;SDS011;11580;52.562;13.418;2023-05-10T07:45:07;3.53;;;3.23;;
22826;SDS011;11580;52.562;13.418;2023-05-10T07:47:35;4.77;;;3.37;;
22826;SDS011;11580;52.562;13.418;2023-05-10T07:50:03;3.20;;;2.77;;
22826;SDS011;11580;52.562;13.418;2023-05-10T07:52:31;3.60;;;3.40;;
22826;SDS011;11580;52.562;13.418;2023-05-10T07:54:59;3.57;;;3.27;;
22826;SDS011;11580;52.562;13.418;2023-05-10T07:57:26;3.53;;;3.23;;
22826;SDS011;11580;52.562;13.418;2023-05-10T07:59:53;3.23;;;2.93;;
22826;SDS011;11580;52.562;13.418;2023-05-10T08:02:21;3.50;;;3.20;;
22826;SDS011;11580;52.562;13.418;2023-05-10T08:04:48;4.73;;;3.40;;
22826;SDS011;11580;52.562;13.418;2023-05-10T08:07:16;3.50;;;3.20;;
22826;SDS011;11580;52.562;13.418;2023-05-10T08:09:43;3.80;;;3.50;;
22826;SDS011;11580;52.562;13.418;2023-05-10T08:12:11;3.43;;;3.13;;
22826;SDS011;11580;52.562;13.418;2023-05-10T08:14:38;3.30;;;3.00;;
22826;SDS011;11580;52.562;13.418;2023-05-10T08:17:05;3.60;;;3.30;;
22826;SDS011;11580;52.562;13.418;2023-05-10T08:19:34;3.60;;;3.10;;
22826;SDS011;11580;52.562;13.418;2023-05-10T08:22:01;2.87;;;2.67;;
22826;SDS011;11580;52.562;13.418;2023-05-10T08:24:28;3.67;;;3.40;;
22826;SDS011;11580;52.562;13.418;2023-05-10T08:26:55;3.57;;;3.27;;
22826;SDS011;11580;52.562;13.418;2023-05-10T08:29:22;4.00;;;3.53;;
22826;SDS011;11580;52.562;13.418;2023-05-10T08:31:49;5.50;;;3.37;;
22826;SDS011;11580;52.562;13.418;2023-05-10T08:34:17;3.80;;;3.50;;
22826;SDS011;11580;52.562;13.418;2023-05-10T08:36:45;3.57;;;3.27;;
22826;SDS011;11580;52.562;13.418;2023-05-10T08:39:12;3.13;;;2.93;;
22826;SDS011;11580;52.562;13.418;2023-05-10T08:41:39;3.70;;;3.30;;
22826;SDS011;11580;52.562;13.418;2023-05-10T08:44:10;3.43;;;3.00;;
22826;SDS011;11580;52.562;13.418;2023-05-10T08:46:38;3.40;;;3.20;;
22826;SDS011;11580;52.562;13.418;2023-05-10T08:49:09;3.30;;;3.10;;
22826;SDS011;11580;52.562;13.418;2023-05-10T08:51:44;3.43;;;3.13;;
22826;SDS011;11580;52.562;13.418;2023-05-10T08:54:18;3.47;;;3.23;;
22826;SDS011;11580;52.562;13.418;2023-05-10T08:56:45;3.10;;;2.90;;
22826;SDS011;11580;52.562;13.418;2023-05-10T08:59:13;3.30;;;3.10;;
22826;SDS011;11580;52.562;13.418;2023-05-10T09:01:41;3.63;;;3.43;;
22826;SDS011;11580;52.562;13.418;2023-05-10T09:04:11;2.93;;;2.70;;
22826;SDS011;11580;52.562;13.418;2023-05-10T09:06:38;3.03;;;2.83;;
22826;SDS011;11580;52.562;13.418;2023-05-10T09:09:08;3.30;;;3.10;;
22826;SDS011;11580;52.562;13.418;2023-05-10T09:11:35;2.90;;;2.70;;
22826;SDS011;11580;52.562;13.418;2023-05-10T09:14:02;3.07;;;2.87;;
22826;SDS011;11580;52.562;13.418;2023-05-10T09:16:30;3.50;;;3.30;;
22826;SDS011;11580;52.562;13.418;2023-05-10T09:18:57;3.80;;;3.50;;
22826;SDS011;11580;52.562;13.418;2023-05-10T09:21:24;3.10;;;2.90;;
22826;SDS011;11580;52.562;13.418;2023-05-10T09:23:52;3.17;;;2.97;;
22826;SDS011;11580;52.562;13.418;2023-05-10T09:26:23;5.17;;;3.57;;
22826;SDS011;11580;52.562;13.418;2023-05-10T09:28:51;3.30;;;2.70;;
22826;SDS011;11580;52.562;13.418;2023-05-10T09:31:19;3.10;;;2.90;;
22826;SDS011;11580;52.562;13.418;2023-05-10T09:33:47;3.77;;;3.47;;
22826;SDS011;11580;52.562;13.418;2023-05-10T09:36:15;3.60;;;3.30;;
22826;SDS011;11580;52.562;13.418;2023-05-10T09:38:46;3.23;;;3.03;;
22826;SDS011;11580;52.562;13.418;2023-05-10T09:41:16;3.60;;;3.23;;
22826;SDS011;11580;52.562;13.418;2023-05-10T09:43:46;3.20;;;3.00;;
22826;SDS011;11580;52.562;13.418;2023-05-10T09:46:14;2.60;;;2.50;;
22826;SDS011;11580;52.562;13.418;2023-05-10T09:48:43;3.73;;;3.53;;
22826;SDS011;11580;52.562;13.418;2023-05-10T09:51:18;3.83;;;3.53;;
22826;SDS011;11580;52.562;13.418;2023-05-10T09:53:46;3.70;;;3.27;;
22826;SDS011;11580;52.562;13.418;2023-05-10T09:59:05;3.27;;;2.97;;
22826;SDS011;11580;52.562;13.418;2023-05-10T10:01:34;4.23;;;3.17;;
22826;SDS011;11580;52.562;13.418;2023-05-10T10:04:02;3.00;;;2.80;;
22826;SDS011;11580;52.562;13.418;2023-05-10T10:06:35;3.90;;;3.60;;
22826;SDS011;11580;52.562;13.418;2023-05-10T10:09:03;3.33;;;3.03;;
22826;SDS011;11580;52.562;13.418;2023-05-10T10:11:33;3.67;;;3.37;;
22826;SDS011;11580;52.562;13.418;2023-05-10T10:14:02;4.53;;;3.00;;
22826;SDS011;11580;52.562;13.418;2023-05-10T10:16:30;4.20;;;2.90;;
22826;SDS011;11580;52.562;13.418;2023-05-10T10:18:58;3.90;;;3.10;;
22826;SDS011;11580;52.562;13.418;2023-05-10T10:21:26;3.33;;;2.90;;
22826;SDS011;11580;52.562;13.418;2023-05-10T10:23:54;3.80;;;3.50;;
22826;SDS011;11580;52.562;13.418;2023-05-10T10:26:21;3.17;;;2.97;;
22826;SDS011;11580;52.562;13.418;2023-05-10T10:28:51;3.13;;;2.93;;
22826;SDS011;11580;52.562;13.418;2023-05-10T10:31:34;3.00;;;2.80;;
22826;SDS011;11580;52.562;13.418;2023-05-10T10:34:08;2.90;;;2.70;;
22826;SDS011;11580;52.562;13.418;2023-05-10T10:36:42;3.20;;;3.00;;
22826;SDS011;11580;52.562;13.418;2023-05-10T10:39:13;3.30;;;3.10;;
22826;SDS011;11580;52.562;13.418;2023-05-10T10:41:48;3.60;;;3.30;;
22826;SDS011;11580;52.562;13.418;2023-05-10T10:44:24;3.23;;;2.90;;
22826;SDS011;11580;52.562;13.418;2023-05-10T10:47:10;3.33;;;3.10;;
22826;SDS011;11580;52.562;13.418;2023-05-10T10:50:04;3.40;;;3.13;;
22826;SDS011;11580;52.562;13.418;2023-05-10T10:52:34;4.60;;;3.13;;
22826;SDS011;11580;52.562;13.418;2023-05-10T10:55:04;3.20;;;3.00;;
22826;SDS011;11580;52.562;13.418;2023-05-10T10:57:42;3.03;;;2.80;;
22826;SDS011;11580;52.562;13.418;2023-05-10T11:00:18;3.23;;;3.03;;
22826;SDS011;11580;52.562;13.418;2023-05-10T11:02:51;4.50;;;3.40;;
22826;SDS011;11580;52.562;13.418;2023-05-10T11:08:13;3.53;;;3.20;;
22826;SDS011;11580;52.562;13.418;2023-05-10T11:10:52;3.37;;;2.90;;
22826;SDS011;11580;52.562;13.418;2023-05-10T11:13:32;3.27;;;3.07;;
22826;SDS011;11580;52.562;13.418;2023-05-10T11:18:57;3.67;;;3.37;;
22826;SDS011;11580;52.562;13.418;2023-05-10T11:21:28;3.27;;;3.07;;
22826;SDS011;11580;52.562;13.418;2023-05-10T11:23:56;2.93;;;2.73;;
22826;SDS011;11580;52.562;13.418;2023-05-10T11:26:25;3.40;;;3.10;;
22826;SDS011;11580;52.562;13.418;2023-05-10T11:28:58;3.53;;;3.33;;
22826;SDS011;11580;52.562;13.418;2023-05-10T11:31:27;3.30;;;3.10;;
22826;SDS011;11580;52.562;13.418;2023-05-10T11:33:57;3.07;;;2.60;;
22826;SDS011;11580;52.562;13.418;2023-05-10T11:36:27;3.50;;;3.30;;
22826;SDS011;11580;52.562;13.418;2023-05-10T11:38:58;3.40;;;3.10;;
22826;SDS011;11580;52.562;13.418;2023-05-10T11:41:27;4.87;;;3.80;;
22826;SDS011;11580;52.562;13.418;2023-05-10T11:43:57;7.30;;;4.30;;
22826;SDS011;11580;52.562;13.418;2023-05-10T11:46:25;3.33;;;3.13;;
22826;SDS011;11580;52.562;13.418;2023-05-10T11:48:55;3.13;;;2.93;;
22826;SDS011;11580;52.562;13.418;2023-05-10T11:51:29;4.20;;;2.90;;
22826;SDS011;11580;52.562;13.418;2023-05-10T11:54:00;3.93;;;3.60;;
22826;SDS011;11580;52.562;13.418;2023-05-10T11:56:32;3.47;;;2.80;;
22826;SDS011;11580;52.562;13.418;2023-05-10T11:59:00;3.60;;;3.30;;
22826;SDS011;11580;52.562;13.418;2023-05-10T12:01:27;4.77;;;3.10;;
22826;SDS011;11580;52.562;13.418;2023-05-10T12:03:55;3.40;;;3.07;;
22826;SDS011;11580;52.562;13.418;2023-05-10T12:06:27;3.60;;;3.30;;
22826;SDS011;11580;52.562;13.418;2023-05-10T12:08:57;3.70;;;3.40;;
22826;SDS011;11580;52.562;13.418;2023-05-10T12:11:24;3.30;;;3.10;;
22826;SDS011;11580;52.562;13.418;2023-05-10T12:13:53;4.80;;;3.00;;
22826;SDS011;11580;52.562;13.418;2023-05-10T12:16:22;3.27;;;3.07;;
22826;SDS011;11580;52.562;13.418;2023-05-10T12:18:51;3.43;;;3.07;;
22826;SDS011;11580;52.562;13.418;2023-05-10T12:21:23;3.23;;;2.93;;
22826;SDS011;11580;52.562;13.418;2023-05-10T12:23:51;3.10;;;2.90;;
22826;SDS011;11580;52.562;13.418;2023-05-10T12:26:21;3.40;;;3.03;;
22826;SDS011;11580;52.562;13.418;2023-05-10T12:28:49;3.50;;;3.20;;
22826;SDS011;11580;52.562;13.418;2023-05-10T12:31:17;5.40;;;3.43;;
22826;SDS011;11580;52.562;13.418;2023-05-10T12:33:44;6.03;;;4.43;;
22826;SDS011;11580;52.562;13.418;2023-05-10T12:36:14;4.43;;;3.10;;
22826;SDS011;11580;52.562;13.418;2023-05-10T12:38:45;3.37;;;2.93;;
22826;SDS011;11580;52.562;13.418;2023-05-10T12:41:14;6.20;;;3.43;;
22826;SDS011;11580;52.562;13.418;2023-05-10T12:43:42;4.10;;;2.80;;
22826;SDS011;11580;52.562;13.418;2023-05-10T12:46:12;3.50;;;3.20;;
22826;SDS011;11580;52.562;13.418;2023-05-10T12:48:41;3.27;;;2.97;;
22826;SDS011;11580;52.562;13.418;2023-05-10T12:51:10;3.60;;;3.30;;
22826;SDS011;11580;52.562;13.418;2023-05-10T12:53:40;3.23;;;2.90;;
22826;SDS011;11580;52.562;13.418;2023-05-10T12:56:09;3.40;;;3.00;;
22826;SDS011;11580;52.562;13.418;2023-05-10T12:58:36;3.03;;;2.80;;
22826;SDS011;11580;52.562;13.418;2023-05-10T13:01:05;3.60;;;3.30;;
22826;SDS011;11580;52.562;13.418;2023-05-10T13:03:32;3.50;;;3.30;;
22826;SDS011;11580;52.562;13.418;2023-05-10T13:05:59;3.30;;;3.10;;
22826;SDS011;11580;52.562;13.418;2023-05-10T13:08:26;3.50;;;3.30;;
22826;SDS011;11580;52.562;13.418;2023-05-10T13:10:58;3.03;;;2.83;;
22826;SDS011;11580;52.562;13.418;2023-05-10T13:13:27;3.40;;;3.10;;
22826;SDS011;11580;52.562;13.418;2023-05-10T13:15:54;3.23;;;3.00;;
22826;SDS011;11580;52.562;13.418;2023-05-10T13:18:21;3.43;;;3.13;;
22826;SDS011;11580;52.562;13.418;2023-05-10T13:20:49;3.17;;;2.90;;
22826;SDS011;11580;52.562;13.418;2023-05-10T13:23:16;3.20;;;2.70;;
22826;SDS011;11580;52.562;13.418;2023-05-10T13:25:43;3.03;;;2.70;;
22826;SDS011;11580;52.562;13.418;2023-05-10T13:28:11;3.20;;;2.90;;
22826;SDS011;11580;52.562;13.418;2023-05-10T13:30:39;2.90;;;2.70;;
22826;SDS011;11580;52.562;13.418;2023-05-10T13:33:06;3.20;;;2.53;;
22826;SDS011;11580;52.562;13.418;2023-05-10T13:35:33;2.50;;;2.37;;
22826;SDS011;11580;52.562;13.418;2023-05-10T13:38:00;3.37;;;3.17;;
22826;SDS011;11580;52.562;13.418;2023-05-10T13:40:28;3.50;;;3.20;;
22826;SDS011;11580;52.562;13.418;2023-05-10T13:42:55;3.93;;;3.10;;
22826;SDS011;11580;52.562;13.418;2023-05-10T13:45:22;3.50;;;3.30;;
22826;SDS011;11580;52.562;13.418;2023-05-10T13:47:50;2.73;;;2.53;;
22826;SDS011;11580;52.562;13.418;2023-05-10T13:50:18;2.70;;;2.50;;
22826;SDS011;11580;52.562;13.418;2023-05-10T13:52:45;3.30;;;3.10;;
22826;SDS011;11580;52.562;13.418;2023-05-10T13:55:12;3.23;;;3.03;;
22826;SDS011;11580;52.562;13.418;2023-05-10T13:57:40;2.83;;;2.63;;
22826;SDS011;11580;52.562;13.418;2023-05-10T14:00:08;3.03;;;2.73;;
22826;SDS011;11580;52.562;13.418;2023-05-10T14:02:36;2.73;;;2.57;;
22826;SDS011;11580;52.562;13.418;2023-05-10T14:05:05;3.83;;;2.60;;
22826;SDS011;11580;52.562;13.418;2023-05-10T14:07:33;2.83;;;2.63;;
22826;SDS011;11580;52.562;13.418;2023-05-10T14:10:01;3.00;;;2.80;;
22826;SDS011;11580;52.562;13.418;2023-05-10T14:12:28;3.10;;;2.50;;
22826;SDS011;11580;52.562;13.418;2023-05-10T14:14:55;2.93;;;2.73;;
22826;SDS011;11580;52.562;13.418;2023-05-10T14:17:23;3.20;;;3.00;;
22826;SDS011;11580;52.562;13.418;2023-05-10T14:19:50;3.00;;;2.50;;
22826;SDS011;11580;52.562;13.418;2023-05-10T14:22:20;3.40;;;2.80;;
22826;SDS011;11580;52.562;13.418;2023-05-10T14:24:47;3.33;;;3.00;;
22826;SDS011;11580;52.562;13.418;2023-05-10T14:27:15;3.53;;;3.23;;
22826;SDS011;11580;52.562;13.418;2023-05-10T14:29:43;2.93;;;2.73;;
22826;SDS011;11580;52.562;13.418;2023-05-10T14:32:10;2.67;;;2.47;;
22826;SDS011;11580;52.562;13.418;2023-05-10T14:34:37;2.97;;;2.77;;
22826;SDS011;11580;52.562;13.418;2023-05-10T14:37:04;3.00;;;2.80;;
22826;SDS011;11580;52.562;13.418;2023-05-10T14:39:33;2.63;;;2.43;;
22826;SDS011;11580;52.562;13.418;2023-05-10T14:42:00;3.17;;;2.87;;
22826;SDS011;11580;52.562;13.418;2023-05-10T14:44:28;3.30;;;3.10;;
22826;SDS011;11580;52.562;13.418;2023-05-10T14:46:55;2.73;;;2.57;;
22826;SDS011;11580;52.562;13.418;2023-05-10T14:49:22;2.90;;;2.70;;
22826;SDS011;11580;52.562;13.418;2023-05-10T14:51:51;2.80;;;2.60;;
22826;SDS011;11580;52.562;13.418;2023-05-10T14:54:18;4.53;;;3.07;;